createdAt,value
2023-09-02T00:00:16.453Z,92740.34
2023-09-02T00:02:45.327Z,92728.00
2023-09-02T00:05:14.070Z,92732.22
2023-09-02T00:07:43.977Z,92732.97
2023-09-02T00:10:13.432Z,92731.06
2023-09-02T00:12:42.151Z,92729.13
2023-09-02T00:15:11.455Z,92729.50
2023-09-02T00:17:40.247Z,92723.34
2023-09-02T00:20:10.379Z,92717.16
2023-09-02T00:22:38.991Z,92721.41
2023-09-02T00:25:09.832Z,92721.44
2023-09-02T00:27:38.522Z,92720.25
2023-09-02T00:30:08.790Z,92719.06
2023-09-02T00:32:37.597Z,92725.31
2023-09-02T00:35:07.244Z,92731.44
2023-09-02T00:37:36.032Z,92730.28
2023-09-02T00:40:07.682Z,92728.72
2023-09-02T00:42:39.325Z,92725.25
2023-09-02T00:45:09.076Z,92727.94
2023-09-02T00:47:37.847Z,92722.94
2023-09-02T00:50:08.028Z,92732.59
2023-09-02T00:52:37.513Z,92736.44
2023-09-02T00:55:07.166Z,92730.66
2023-09-02T00:57:38.083Z,92733.69
2023-09-02T01:00:09.264Z,92730.56
2023-09-02T01:02:39.668Z,92722.84
2023-09-02T01:05:09.439Z,92725.88
2023-09-02T01:07:38.740Z,92735.50
2023-09-02T01:10:09.196Z,92739.38
2023-09-02T01:12:39.075Z,92739.00
2023-09-02T01:15:09.128Z,92734.31
2023-09-02T01:17:37.671Z,92735.50
2023-09-02T01:20:10.451Z,92738.22
2023-09-02T01:23:27.035Z,92737.47
2023-09-02T01:26:25.668Z,92745.94
2023-09-02T01:29:01.521Z,92742.56
2023-09-02T01:31:32.550Z,92735.25
2023-09-02T01:34:02.881Z,92738.72
2023-09-02T01:36:32.326Z,92745.59
2023-09-02T01:39:02.981Z,92735.97
2023-09-02T01:41:32.937Z,92747.97
2023-09-02T01:44:03.537Z,92748.38
2023-09-02T01:46:32.087Z,92743.72
2023-09-02T01:49:00.895Z,92748.75
2023-09-02T01:51:30.067Z,92759.94
2023-09-02T01:53:58.930Z,92757.25
2023-09-02T01:56:27.603Z,92749.88
2023-09-02T01:58:56.408Z,92753.00
2023-09-02T02:01:26.582Z,92747.94
2023-09-02T02:04:02.885Z,92759.19
2023-09-02T02:06:33.457Z,92754.84
2023-09-02T02:09:07.311Z,92755.31
2023-09-02T02:11:39.032Z,92753.69
2023-09-02T02:14:08.710Z,92763.78
2023-09-02T02:16:38.775Z,92756.47
2023-09-02T02:19:07.397Z,92761.88
2023-09-02T02:21:35.929Z,92758.81
2023-09-02T02:24:04.722Z,92753.78
2023-09-02T02:26:33.223Z,92753.78
2023-09-02T02:29:01.789Z,92754.53
2023-09-02T02:31:30.322Z,92756.13
2023-09-02T02:34:00.440Z,92759.19
2023-09-02T02:36:29.064Z,92755.72
2023-09-02T02:38:57.796Z,92752.28
2023-09-02T02:41:26.418Z,92758.84
2023-09-02T02:43:55.137Z,92758.06
2023-09-02T02:46:23.818Z,92757.28
2023-09-02T02:48:52.541Z,92760.78
2023-09-02T02:51:22.543Z,92751.91
2023-09-02T02:53:52.478Z,92751.50
2023-09-02T02:56:21.549Z,92762.31
2023-09-02T02:58:50.279Z,92757.25
2023-09-02T03:01:18.961Z,92759.56
2023-09-02T03:03:48.407Z,92757.31
2023-09-02T03:06:20.023Z,92756.53
2023-09-02T03:08:50.082Z,92756.91
2023-09-02T03:11:18.814Z,92761.94
2023-09-02T03:13:47.509Z,92756.13
2023-09-02T03:16:16.072Z,92768.09
2023-09-02T03:18:44.625Z,92761.09
2023-09-02T03:21:13.135Z,92762.28
2023-09-02T03:23:41.634Z,92763.81
2023-09-02T03:26:13.361Z,92763.09
2023-09-02T03:28:41.887Z,92766.56
2023-09-02T03:31:11.313Z,92768.09
2023-09-02T03:33:40.493Z,92767.72
2023-09-02T03:36:09.384Z,92763.09
2023-09-02T03:38:37.882Z,92760.00
2023-09-02T03:41:14.262Z,92770.44
2023-09-02T03:43:42.750Z,92773.53
2023-09-02T03:46:11.283Z,92766.97
2023-09-02T03:48:40.041Z,92771.22
2023-09-02T03:51:13.788Z,92757.31
2023-09-02T03:53:43.119Z,92767.34
2023-09-02T03:56:13.416Z,92761.56
2023-09-02T03:58:43.408Z,92764.25
2023-09-02T04:01:13.696Z,92766.22
2023-09-02T04:03:43.097Z,92767.38
2023-09-02T04:06:11.695Z,92773.94
2023-09-02T04:08:40.250Z,92781.28
2023-09-02T04:11:08.747Z,92776.22
2023-09-02T04:13:38.656Z,92767.00
2023-09-02T04:16:07.181Z,92772.41
2023-09-02T04:18:35.735Z,92774.72
2023-09-02T04:21:05.431Z,92768.91
2023-09-02T04:23:34.123Z,92761.59
2023-09-02T04:26:03.335Z,92766.97
2023-09-02T04:28:31.969Z,92767.38
2023-09-02T04:31:02.086Z,92762.34
2023-09-02T04:33:30.684Z,92759.63
2023-09-02T04:35:59.475Z,92767.38
2023-09-02T04:38:28.199Z,92768.91
2023-09-02T04:40:56.755Z,92765.81
2023-09-02T04:43:25.673Z,92774.28
2023-09-02T04:45:54.257Z,92771.97
2023-09-02T04:48:24.373Z,92771.59
2023-09-02T04:50:56.032Z,92775.44
2023-09-02T04:53:25.400Z,92776.59
2023-09-02T04:55:54.032Z,92787.38
2023-09-02T04:58:24.632Z,92778.13
2023-09-02T05:00:54.039Z,92796.22
2023-09-02T05:03:24.003Z,92790.47
2023-09-02T05:05:52.487Z,92797.81
2023-09-02T05:08:20.997Z,92802.38
2023-09-02T05:10:49.494Z,92790.81
2023-09-02T05:13:18.302Z,92790.41
2023-09-02T05:15:47.234Z,92800.38
2023-09-02T05:18:16.708Z,92801.53
2023-09-02T05:20:48.737Z,92801.50
2023-09-02T05:23:17.745Z,92806.94
2023-09-02T05:25:46.381Z,92805.09
2023-09-02T05:28:14.890Z,92805.72
2023-09-02T05:30:43.384Z,92802.75
2023-09-02T05:33:11.882Z,92806.59
2023-09-02T05:35:40.353Z,92810.47
2023-09-02T05:38:10.697Z,92818.59
2023-09-02T05:40:43.306Z,92820.06
2023-09-02T05:43:12.133Z,92815.41
2023-09-02T05:45:40.784Z,92810.03
2023-09-02T05:48:10.102Z,92820.84
2023-09-02T05:50:38.832Z,92820.09
2023-09-02T05:53:07.330Z,92813.84
2023-09-02T05:55:37.201Z,92814.66
2023-09-02T05:58:05.946Z,92813.91
2023-09-02T06:00:36.506Z,92818.88
2023-09-02T06:03:05.796Z,92815.78
2023-09-02T06:05:34.383Z,92818.09
2023-09-02T06:08:02.943Z,92821.97
2023-09-02T06:10:34.370Z,92819.66
2023-09-02T06:13:04.721Z,92827.38
2023-09-02T06:15:33.223Z,92827.78
2023-09-02T06:18:02.875Z,92827.81
2023-09-02T06:20:31.578Z,92824.34
2023-09-02T06:23:00.145Z,92830.13
2023-09-02T06:25:28.609Z,92834.78
2023-09-02T06:27:57.094Z,92833.22
2023-09-02T06:30:26.935Z,92832.13
2023-09-02T06:32:55.449Z,92832.13
2023-09-02T06:35:24.070Z,92835.25
2023-09-02T06:37:52.589Z,92842.59
2023-09-02T06:40:21.143Z,92840.69
2023-09-02T06:42:49.636Z,92843.34
2023-09-02T06:45:18.311Z,92845.66
2023-09-02T06:47:48.185Z,92846.44
2023-09-02T06:50:16.897Z,92855.72
2023-09-02T06:52:45.377Z,92847.22
2023-09-02T06:55:14.098Z,92854.22
2023-09-02T06:57:45.048Z,92853.44
2023-09-02T07:00:15.181Z,92864.63
2023-09-02T07:02:43.782Z,92858.44
2023-09-02T07:05:13.715Z,92870.44
2023-09-02T07:07:42.211Z,92865.38
2023-09-02T07:10:12.450Z,92868.81
2023-09-02T07:12:40.918Z,92864.09
2023-09-02T07:15:11.544Z,92873.34
2023-09-02T07:17:40.050Z,92870.97
2023-09-02T07:20:10.552Z,92867.09
2023-09-02T07:22:40.706Z,92870.56
2023-09-02T07:25:10.284Z,92871.69
2023-09-02T07:27:38.770Z,92870.13
2023-09-02T07:30:09.149Z,92874.34
2023-09-02T07:32:37.784Z,92874.66
2023-09-02T07:35:07.455Z,92870.09
2023-09-02T07:37:36.012Z,92873.19
2023-09-02T07:40:07.818Z,92869.19
2023-09-02T07:42:36.573Z,92876.06
2023-09-02T07:45:05.550Z,92871.31
2023-09-02T07:47:34.077Z,92865.78
2023-09-02T07:50:02.586Z,92866.53
2023-09-02T07:52:31.979Z,92865.66
2023-09-02T07:55:00.778Z,92869.44
2023-09-02T07:57:32.049Z,92876.25
2023-09-02T08:00:00.636Z,92868.31
2023-09-02T08:02:29.235Z,92875.88
2023-09-02T08:04:57.800Z,92878.94
2023-09-02T08:07:26.298Z,92875.63
2023-09-02T08:09:54.794Z,92881.28
2023-09-02T08:12:23.276Z,92873.72
2023-09-02T08:14:53.133Z,92868.88
2023-09-02T08:17:21.778Z,92871.97
2023-09-02T08:19:50.524Z,92878.69
2023-09-02T08:22:19.987Z,92881.91
2023-09-02T08:24:48.534Z,92874.47
2023-09-02T08:27:17.035Z,92871.66
2023-09-02T08:29:45.525Z,92872.22
2023-09-02T08:32:15.604Z,92872.88
2023-09-02T08:34:44.130Z,92869.63
2023-09-02T08:37:12.613Z,92862.31
2023-09-02T08:39:41.430Z,92867.31
2023-09-02T08:42:12.787Z,92864.13
2023-09-02T08:44:42.268Z,92865.13
2023-09-02T08:47:11.039Z,92866.03
2023-09-02T08:49:41.116Z,92867.44
2023-09-02T08:52:10.032Z,92865.97
2023-09-02T08:54:40.196Z,92862.41
2023-09-02T08:57:09.183Z,92868.22
2023-09-02T08:59:37.942Z,92872.41
2023-09-02T09:02:07.776Z,92864.22
2023-09-02T09:04:37.475Z,92873.09
2023-09-02T09:07:08.632Z,92866.91
2023-09-02T09:09:40.874Z,92860.94
2023-09-02T09:12:10.067Z,92869.00
2023-09-02T09:14:39.990Z,92874.00
2023-09-02T09:17:09.968Z,92872.59
2023-09-02T09:19:38.731Z,92883.50
2023-09-02T09:22:08.611Z,92879.78
2023-09-02T09:24:37.097Z,92879.78
2023-09-02T09:27:07.816Z,92887.72
2023-09-02T09:29:46.591Z,92879.97
2023-09-02T09:32:19.445Z,92883.78
2023-09-02T09:34:49.379Z,92883.69
2023-09-02T09:37:19.408Z,92891.00
2023-09-02T09:39:52.618Z,92879.41
2023-09-02T09:42:36.896Z,92884.84
2023-09-02T09:45:08.027Z,92893.34
2023-09-02T09:47:36.615Z,92887.72
2023-09-02T09:50:16.504Z,92887.19
2023-09-02T09:53:02.788Z,92880.09
2023-09-02T09:55:32.225Z,92885.38
2023-09-02T09:58:01.568Z,92885.09
2023-09-02T10:00:32.065Z,92891.19
2023-09-02T10:03:02.226Z,92878.25
2023-09-02T10:05:33.136Z,92881.91
2023-09-02T10:08:06.054Z,92885.41
2023-09-02T10:10:37.386Z,92872.41
2023-09-02T10:13:07.178Z,92867.53
2023-09-02T10:15:36.003Z,92870.59
2023-09-02T10:18:06.235Z,92861.06
2023-09-02T10:20:36.997Z,92868.03
2023-09-02T10:23:09.759Z,92863.34
2023-09-02T10:25:47.623Z,92866.88
2023-09-02T10:28:23.464Z,92865.56
2023-09-02T10:30:54.244Z,92861.75
2023-09-02T10:33:32.935Z,92856.00
2023-09-02T10:36:07.796Z,92853.06
2023-09-02T10:38:45.448Z,92853.41
2023-09-02T10:41:15.560Z,92859.66
2023-09-02T10:43:46.553Z,92850.72
2023-09-02T10:46:15.175Z,92838.31
2023-09-02T10:48:47.581Z,92850.78
2023-09-02T10:51:17.357Z,92846.59
2023-09-02T10:54:08.609Z,92847.50
2023-09-02T10:56:38.545Z,92848.50
2023-09-02T10:59:08.845Z,92836.75
2023-09-02T11:01:48.352Z,92837.06
2023-09-02T11:04:54.957Z,92834.53
2023-09-02T11:07:30.269Z,92841.22
2023-09-02T11:10:00.843Z,92835.00
2023-09-02T11:12:30.140Z,92834.59
2023-09-02T11:15:19.498Z,92841.94
2023-09-02T11:17:48.247Z,92843.25
2023-09-02T11:20:20.279Z,92847.53
2023-09-02T11:22:55.806Z,92844.84
2023-09-02T11:25:31.547Z,92846.09
2023-09-02T11:28:06.033Z,92848.81
2023-09-02T11:30:38.109Z,92846.09
2023-09-02T11:33:08.065Z,92836.38
2023-09-02T11:35:38.583Z,92845.28
2023-09-02T11:38:21.132Z,92846.75
2023-09-02T11:40:51.214Z,92846.28
2023-09-02T11:43:22.718Z,92850.88
2023-09-02T11:45:51.718Z,92849.53
2023-09-02T11:48:20.297Z,92863.16
2023-09-02T11:50:49.048Z,92859.34
2023-09-02T11:53:17.820Z,92862.84
2023-09-02T11:55:46.823Z,92863.47
2023-09-02T11:58:20.161Z,92862.75
2023-09-02T12:00:48.764Z,92871.75
2023-09-02T12:03:24.598Z,92874.16
2023-09-02T12:05:56.686Z,92861.69
2023-09-02T12:08:25.447Z,92863.16
2023-09-02T12:10:55.070Z,92870.59
2023-09-02T12:13:25.156Z,92875.34
2023-09-02T12:15:53.810Z,92877.91
2023-09-02T12:18:23.940Z,92871.66
2023-09-02T12:20:52.889Z,92879.56
2023-09-02T12:23:21.728Z,92873.94
2023-09-02T12:26:07.610Z,92878.66
2023-09-02T12:28:37.783Z,92885.63
2023-09-02T12:31:06.805Z,92885.09
2023-09-02T12:33:39.066Z,92880.56
2023-09-02T12:36:08.123Z,92880.03
2023-09-02T12:38:51.128Z,92876.69
2023-09-02T12:41:19.860Z,92877.94
2023-09-02T12:43:49.963Z,92877.25
2023-09-02T12:46:23.885Z,92875.03
2023-09-02T12:48:53.155Z,92879.88
2023-09-02T12:51:30.239Z,92881.97
2023-09-02T12:54:00.264Z,92890.75
2023-09-02T12:56:29.737Z,92883.19
2023-09-02T12:58:59.809Z,92886.72
2023-09-02T13:01:28.576Z,92897.56
2023-09-02T13:03:57.393Z,92897.34
2023-09-02T13:06:28.738Z,92896.22
2023-09-02T13:08:57.566Z,92881.91
2023-09-02T13:11:28.481Z,92905.91
2023-09-02T13:13:58.567Z,92896.72
2023-09-02T13:16:29.986Z,92898.28
2023-09-02T13:18:59.289Z,92906.03
2023-09-02T13:21:27.777Z,92896.50
2023-09-02T13:23:56.509Z,92891.50
2023-09-02T13:26:25.371Z,92898.94
2023-09-02T13:28:54.081Z,92902.63
2023-09-02T13:31:24.078Z,92886.66
2023-09-02T13:33:52.672Z,92896.66
2023-09-02T13:36:21.744Z,92892.22
2023-09-02T13:38:51.669Z,92893.13
2023-09-02T13:41:21.920Z,92879.75
2023-09-02T13:43:51.243Z,92888.19
2023-09-02T13:46:19.772Z,92890.16
2023-09-02T13:48:49.687Z,92893.53
2023-09-02T13:51:23.422Z,92894.34
2023-09-02T13:53:54.638Z,92891.44
2023-09-02T13:56:23.840Z,92903.06
2023-09-02T13:58:53.109Z,92905.94
2023-09-02T14:01:21.720Z,92911.72
2023-09-02T14:03:52.917Z,92908.63
2023-09-02T14:06:21.527Z,92902.84
2023-09-02T14:08:50.099Z,92903.03
2023-09-02T14:11:19.831Z,92902.66
2023-09-02T14:13:51.347Z,92901.78
2023-09-02T14:16:20.666Z,92905.56
2023-09-02T14:18:50.383Z,92910.47
2023-09-02T14:21:20.338Z,92917.28
2023-09-02T14:23:49.750Z,92905.78
2023-09-02T14:26:18.644Z,92921.53
2023-09-02T14:28:47.358Z,92912.19
2023-09-02T14:31:16.106Z,92916.03
2023-09-02T14:33:44.872Z,92923.97
2023-09-02T14:36:13.431Z,92919.53
2023-09-02T14:38:44.459Z,92931.84
2023-09-02T14:41:13.326Z,92929.13
2023-09-02T14:43:46.703Z,92931.66
2023-09-02T14:46:15.552Z,92932.28
2023-09-02T14:48:44.589Z,92941.38
2023-09-02T14:51:13.458Z,92935.91
2023-09-02T14:53:43.453Z,92934.47
2023-09-02T14:56:13.921Z,92937.38
2023-09-02T14:58:42.455Z,92933.13
2023-09-02T15:01:16.558Z,92930.03
2023-09-02T15:03:46.906Z,92936.25
2023-09-02T15:06:15.847Z,92935.59
2023-09-02T15:08:45.724Z,92940.75
2023-09-02T15:11:16.215Z,92940.72
2023-09-02T15:13:44.972Z,92941.09
2023-09-02T15:16:16.185Z,92942.94
2023-09-02T15:18:46.295Z,92953.34
2023-09-02T15:21:18.616Z,92940.47
2023-09-02T15:23:48.696Z,92954.59
2023-09-02T15:26:21.157Z,92949.31
2023-09-02T15:28:49.651Z,92946.81
2023-09-02T15:31:18.872Z,92953.66
2023-09-02T15:33:47.782Z,92964.94
2023-09-02T15:36:21.097Z,92963.09
2023-09-02T15:38:51.373Z,92964.63
2023-09-02T15:41:20.334Z,92965.66
2023-09-02T15:43:53.866Z,92970.63
2023-09-02T15:46:23.349Z,92974.78
2023-09-02T15:48:52.208Z,92972.19
2023-09-02T15:51:21.434Z,92968.06
2023-09-02T15:53:51.402Z,92964.78
2023-09-02T15:56:20.176Z,92972.78
2023-09-02T15:58:48.778Z,92967.44
2023-09-02T16:01:17.432Z,92966.31
2023-09-02T16:03:46.006Z,92971.31
2023-09-02T16:06:14.720Z,92961.19
2023-09-02T16:08:43.217Z,92961.19
2023-09-02T16:11:13.726Z,92951.28
2023-09-02T16:13:42.800Z,92943.75
2023-09-02T16:16:11.511Z,92961.56
2023-09-02T16:18:40.111Z,92954.41
2023-09-02T16:21:08.625Z,92959.25
2023-09-02T16:23:37.115Z,92959.72
2023-09-02T16:26:05.634Z,92960.75
2023-09-02T16:28:35.694Z,92957.09
2023-09-02T16:31:05.188Z,92964.56
2023-09-02T16:33:33.988Z,92966.63
2023-09-02T16:36:02.486Z,92970.63
2023-09-02T16:38:31.199Z,92961.28
2023-09-02T16:41:01.054Z,92955.34
2023-09-02T16:43:29.761Z,92954.25
2023-09-02T16:46:00.599Z,92951.56
2023-09-02T16:48:29.445Z,92966.03
2023-09-02T16:50:57.941Z,92968.41
2023-09-02T16:53:27.954Z,92973.91
2023-09-02T16:56:04.857Z,92970.75
2023-09-02T16:58:35.507Z,92968.09
2023-09-02T17:01:11.704Z,92970.47
2023-09-02T17:03:40.502Z,92968.19
2023-09-02T17:06:09.289Z,92968.84
2023-09-02T17:08:37.977Z,92978.28
2023-09-02T17:11:06.466Z,92969.03
2023-09-02T17:13:36.827Z,92969.25
2023-09-02T17:16:11.002Z,92973.34
2023-09-02T17:18:40.126Z,92974.25
2023-09-02T17:21:11.849Z,92981.47
2023-09-02T17:23:41.802Z,92978.72
2023-09-02T17:26:10.428Z,92984.78
2023-09-02T17:28:39.078Z,92983.69
2023-09-02T17:31:09.924Z,92982.41
2023-09-02T17:33:40.885Z,92978.16
2023-09-02T17:36:09.806Z,92981.28
2023-09-02T17:38:38.320Z,92981.63
2023-09-02T17:41:07.192Z,92993.28
2023-09-02T17:43:35.689Z,92997.38
2023-09-02T17:46:04.489Z,93004.75
2023-09-02T17:48:34.424Z,93001.47
2023-09-02T17:51:02.923Z,93008.38
2023-09-02T17:53:31.717Z,93009.66
2023-09-02T17:56:00.252Z,93009.97
2023-09-02T17:58:30.182Z,93011.97
2023-09-02T18:00:58.700Z,93015.97
2023-09-02T18:03:27.251Z,93028.31
2023-09-02T18:05:57.187Z,93028.69
2023-09-02T18:08:34.250Z,93028.31
2023-09-02T18:11:10.592Z,93032.88
2023-09-02T18:13:39.068Z,93037.34
2023-09-02T18:16:07.953Z,93041.06
2023-09-02T18:18:37.564Z,93037.47
2023-09-02T18:21:08.649Z,93049.47
2023-09-02T18:23:37.302Z,93050.84
2023-09-02T18:26:06.369Z,93052.69
2023-09-02T18:28:34.987Z,93054.69
2023-09-02T18:31:03.799Z,93060.69
2023-09-02T18:33:32.768Z,93059.13
2023-09-02T18:36:01.246Z,93066.75
2023-09-02T18:38:31.201Z,93064.28
2023-09-02T18:40:59.700Z,93063.75
2023-09-02T18:43:28.418Z,93066.59
2023-09-02T18:45:56.929Z,93074.88
2023-09-02T18:48:25.660Z,93075.28
2023-09-02T18:50:54.564Z,93080.59
2023-09-02T18:53:23.527Z,93087.69
2023-09-02T18:55:53.438Z,93094.03
2023-09-02T18:58:22.178Z,93096.88
2023-09-02T19:00:51.199Z,93093.47
2023-09-02T19:03:20.040Z,93100.59
2023-09-02T19:05:48.692Z,93099.84
2023-09-02T19:08:18.005Z,93109.41
2023-09-02T19:10:46.649Z,93108.41
2023-09-02T19:13:16.829Z,93107.34
2023-09-02T19:15:45.361Z,93108.22
2023-09-02T19:18:13.900Z,93119.88
2023-09-02T19:20:42.389Z,93125.66
2023-09-02T19:23:11.126Z,93125.47
2023-09-02T19:25:40.080Z,93130.63
2023-09-02T19:28:08.704Z,93135.34
2023-09-02T19:30:38.801Z,93127.84
2023-09-02T19:33:07.683Z,93134.53
2023-09-02T19:35:36.412Z,93144.25
2023-09-02T19:38:05.228Z,93145.50
2023-09-02T19:40:33.739Z,93146.78
2023-09-02T19:43:02.222Z,93136.34
2023-09-02T19:45:30.937Z,93137.72
2023-09-02T19:48:00.802Z,93134.50
2023-09-02T19:50:29.467Z,93141.81
2023-09-02T19:52:57.987Z,93143.53
2023-09-02T19:55:26.678Z,93137.44
2023-09-02T19:57:55.196Z,93146.53
2023-09-02T20:00:23.982Z,93152.75
2023-09-02T20:02:52.701Z,93151.50
2023-09-02T20:05:22.793Z,93145.03
2023-09-02T20:07:51.446Z,93153.22
2023-09-02T20:10:20.154Z,93150.47
2023-09-02T20:12:48.665Z,93159.44
2023-09-02T20:15:17.378Z,93153.31
2023-09-02T20:17:46.220Z,93153.72
2023-09-02T20:20:15.096Z,93150.94
2023-09-02T20:22:47.358Z,93161.84
2023-09-02T20:25:16.076Z,93158.94
2023-09-02T20:27:45.257Z,93154.22
2023-09-02T20:30:16.490Z,93158.09
2023-09-02T20:32:45.429Z,93161.22
2023-09-02T20:35:13.964Z,93162.88
2023-09-02T20:37:42.467Z,93162.13
2023-09-02T20:40:14.226Z,93170.00
2023-09-02T20:42:42.709Z,93164.50
2023-09-02T20:45:11.694Z,93164.09
2023-09-02T20:47:40.279Z,93156.31
2023-09-02T20:50:10.040Z,93164.53
2023-09-02T20:52:38.627Z,93165.41
2023-09-02T20:55:08.037Z,93161.53
2023-09-02T20:57:38.189Z,93166.25
2023-09-02T21:00:08.701Z,93172.38
2023-09-02T21:02:37.262Z,93176.59
2023-09-02T21:05:07.123Z,93182.16
2023-09-02T21:07:35.856Z,93177.91
2023-09-02T21:10:05.038Z,93168.56
2023-09-02T21:12:33.530Z,93173.22
2023-09-02T21:15:03.423Z,93174.75
2023-09-02T21:17:31.949Z,93171.75
2023-09-02T21:20:04.787Z,93181.91
2023-09-02T21:22:36.912Z,93171.03
2023-09-02T21:25:07.394Z,93170.25
2023-09-02T21:27:36.353Z,93177.22
2023-09-02T21:30:07.604Z,93182.72
2023-09-02T21:32:36.132Z,93183.44
2023-09-02T21:35:05.076Z,93184.25
2023-09-02T21:37:33.629Z,93190.53
2023-09-02T21:40:02.790Z,93193.16
2023-09-02T21:42:32.844Z,93193.19
2023-09-02T21:45:01.412Z,93194.75
2023-09-02T21:47:31.340Z,93190.47
2023-09-02T21:50:00.338Z,93202.09
2023-09-02T21:52:28.824Z,93209.91
2023-09-02T21:54:57.306Z,93212.97
2023-09-02T21:57:25.815Z,93202.09
2023-09-02T21:59:54.525Z,93206.00
2023-09-02T22:02:29.274Z,93203.69
2023-09-02T22:04:59.666Z,93209.53
2023-09-02T22:07:28.292Z,93205.25
2023-09-02T22:09:56.789Z,93205.28
2023-09-02T22:12:25.770Z,93204.13
2023-09-02T22:14:54.241Z,93194.81
2023-09-02T22:17:22.763Z,93194.03
2023-09-02T22:19:51.232Z,93190.16
2023-09-02T22:22:21.090Z,93192.09
2023-09-02T22:24:51.214Z,93191.34
2023-09-02T22:27:20.910Z,93193.66
2023-09-02T22:29:49.387Z,93197.53
2023-09-02T22:32:17.896Z,93194.06
2023-09-02T22:34:46.407Z,93195.22
2023-09-02T22:37:14.958Z,93191.34
2023-09-02T22:39:44.869Z,93195.22
2023-09-02T22:42:13.389Z,93187.88
2023-09-02T22:44:42.082Z,93195.22
2023-09-02T22:47:10.588Z,93198.34
2023-09-02T22:49:39.068Z,93201.44
2023-09-02T22:52:08.112Z,93202.97
2023-09-02T22:54:36.653Z,93196.75
2023-09-02T22:57:07.272Z,93202.97
2023-09-02T22:59:35.812Z,93204.53
2023-09-02T23:02:04.304Z,93205.69
2023-09-02T23:04:32.817Z,93201.81
2023-09-02T23:07:01.407Z,93199.09
2023-09-02T23:09:29.899Z,93201.44
2023-09-02T23:11:58.399Z,93206.44
2023-09-02T23:14:28.260Z,93202.19
2023-09-02T23:16:57.609Z,93199.09
2023-09-02T23:19:27.055Z,93197.53
2023-09-02T23:21:55.580Z,93192.88
2023-09-02T23:24:24.389Z,93192.13
2023-09-02T23:26:54.480Z,93192.13
2023-09-02T23:29:23.074Z,93197.16
2023-09-02T23:31:52.975Z,93194.44
2023-09-02T23:34:21.454Z,93199.50
2023-09-02T23:36:49.979Z,93202.53
2023-09-02T23:39:18.469Z,93201.38
2023-09-02T23:41:47.152Z,93204.09
2023-09-02T23:44:17.774Z,93187.47
2023-09-02T23:46:46.410Z,93190.50
2023-09-02T23:49:16.395Z,93192.47
2023-09-02T23:51:45.035Z,93195.91
2023-09-02T23:54:13.589Z,93185.91
2023-09-02T23:56:42.140Z,93182.44
2023-09-02T23:59:10.641Z,93192.84
